Terminal Aerodrome Forecast
Issued by NWS Louisville, KY

Home | Current Version | Previous Version | Text Only | Print | Product List | Glossary On
Versions: 1 2 3 4 5 6 7 8 9 10 11 12 13 14 15 16
000
FTUS43 KLMK 251300 AAA
TAFLEX
TAF AMD
KLEX 251313Z 2513/2612 20012G20KT P6SM BKN050
     FM252300 16005KT P6SM BKN050
     FM260700 23010KT 4SM SHRA BR VCTS BKN030CB=

USA.gov is the U.S. government's official web portal to all federal, state and local government web resources and services.